createdAt,value
2019-05-06T00:00:08.066Z,100445.33
2019-05-06T00:01:45.457Z,100447.84
2019-05-06T00:03:21.891Z,100454.18
2019-05-06T00:04:58.485Z,100458.57
2019-05-06T00:06:34.789Z,100450.35
2019-05-06T00:08:10.362Z,100450.66
2019-05-06T00:09:46.120Z,100448.47
2019-05-06T00:11:23.847Z,100447.92
2019-05-06T00:12:59.678Z,100451.48
2019-05-06T00:14:35.202Z,100450.98
2019-05-06T00:16:10.788Z,100453.17
2019-05-06T00:17:46.299Z,100450.98
2019-05-06T00:19:24.497Z,100445.80
2019-05-06T00:20:59.484Z,100451.88
2019-05-06T00:22:34.987Z,100451.37
2019-05-06T00:24:10.569Z,100451.65
2019-05-06T00:26:04.131Z,100451.45
2019-05-06T00:27:57.585Z,100450.36
2019-05-06T00:29:34.935Z,100448.91
2019-05-06T00:31:15.931Z,100451.88
2019-05-06T00:32:49.227Z,100445.65
2019-05-06T00:34:24.720Z,100444.05
2019-05-06T00:36:00.645Z,100448.23
2019-05-06T00:37:36.426Z,100444.44
2019-05-06T00:39:14.920Z,100447.18
2019-05-06T00:41:04.420Z,100447.77
2019-05-06T00:42:41.575Z,100446.72
2019-05-06T00:44:17.145Z,100448.01
2019-05-06T00:45:53.662Z,100446.13
2019-05-06T00:47:29.423Z,100445.66
2019-05-06T00:49:04.908Z,100443.23
2019-05-06T00:50:40.429Z,100441.08
2019-05-06T00:52:15.944Z,100441.78
2019-05-06T00:53:55.891Z,100438.48
2019-05-06T00:55:33.634Z,100437.43
2019-05-06T00:57:08.609Z,100437.43
2019-05-06T00:58:44.110Z,100439.11
2019-05-06T01:00:24.417Z,100439.11
2019-05-06T01:02:00.064Z,100441.31
2019-05-06T01:03:35.589Z,100440.80
2019-05-06T01:05:13.407Z,100445.42
2019-05-06T01:06:51.523Z,100446.80
2019-05-06T01:08:27.952Z,100446.28
2019-05-06T01:10:04.136Z,100447.86
2019-05-06T01:11:40.797Z,100443.23
2019-05-06T01:13:28.086Z,100455.56
2019-05-06T01:15:06.809Z,100454.20
2019-05-06T01:16:43.967Z,100455.80
2019-05-06T01:18:21.223Z,100451.92
2019-05-06T01:19:56.752Z,100450.55
2019-05-06T01:21:34.133Z,100447.58
2019-05-06T01:23:09.485Z,100447.34
2019-05-06T01:24:45.056Z,100453.14
2019-05-06T01:26:20.580Z,100447.11
2019-05-06T01:27:56.092Z,100450.98
2019-05-06T01:29:31.613Z,100452.12
2019-05-06T01:31:08.959Z,100448.87
2019-05-06T01:32:44.468Z,100449.17
2019-05-06T01:34:19.978Z,100450.00
2019-05-06T01:35:55.503Z,100450.31
2019-05-06T01:37:31.486Z,100459.92
2019-05-06T01:39:19.286Z,100456.63
2019-05-06T01:40:56.503Z,100456.11
2019-05-06T01:42:49.441Z,100453.57
2019-05-06T01:44:24.966Z,100465.33
2019-05-06T01:46:01.448Z,100457.77
2019-05-06T01:47:36.966Z,100462.42
2019-05-06T01:49:13.780Z,100460.50
2019-05-06T01:50:49.637Z,100463.48
2019-05-06T01:52:25.156Z,100464.03
2019-05-06T01:54:00.684Z,100461.52
2019-05-06T01:55:36.183Z,100466.69
2019-05-06T01:57:13.590Z,100462.27
2019-05-06T01:58:53.454Z,100465.84
2019-05-06T02:00:28.529Z,100465.24
2019-05-06T02:02:04.662Z,100471.47
2019-05-06T02:03:40.263Z,100467.91
2019-05-06T02:05:15.757Z,100471.70
2019-05-06T02:06:51.507Z,100480.67
2019-05-06T02:08:27.080Z,100479.54
2019-05-06T02:10:03.947Z,100480.83
2019-05-06T02:11:39.637Z,100481.61
2019-05-06T02:13:15.181Z,100484.03
2019-05-06T02:14:51.022Z,100486.46
2019-05-06T02:16:27.398Z,100484.78
2019-05-06T02:18:10.542Z,100483.64
2019-05-06T02:19:44.694Z,100485.55
2019-05-06T02:21:26.501Z,100483.02
2019-05-06T02:23:04.162Z,100485.98
2019-05-06T02:24:43.987Z,100483.16
2019-05-06T02:26:19.626Z,100483.08
2019-05-06T02:27:55.157Z,100494.73
2019-05-06T02:29:36.947Z,100493.88
2019-05-06T02:31:30.193Z,100494.97
2019-05-06T02:33:10.046Z,100492.88
2019-05-06T02:34:54.685Z,100494.63
2019-05-06T02:36:37.854Z,100490.95
2019-05-06T02:38:39.249Z,100491.09
2019-05-06T02:40:25.056Z,100486.80
2019-05-06T02:41:59.893Z,100488.86
2019-05-06T02:43:35.396Z,100485.64
2019-05-06T02:45:12.713Z,100491.94
2019-05-06T02:46:53.157Z,100498.80
2019-05-06T02:48:43.281Z,100487.55
2019-05-06T02:50:23.930Z,100495.96
2019-05-06T02:52:02.795Z,100498.81
2019-05-06T02:53:36.934Z,100497.35
2019-05-06T02:55:13.043Z,100497.58
2019-05-06T02:56:48.601Z,100496.95
2019-05-06T02:58:27.608Z,100492.84
2019-05-06T03:00:05.024Z,100496.86
2019-05-06T03:01:43.208Z,100496.27
2019-05-06T03:03:23.263Z,100498.05
2019-05-06T03:04:58.636Z,100499.64
2019-05-06T03:06:34.137Z,100495.22
2019-05-06T03:08:13.182Z,100499.78
2019-05-06T03:09:46.853Z,100496.73
2019-05-06T03:11:24.026Z,100502.98
2019-05-06T03:12:59.740Z,100499.83
2019-05-06T03:14:35.250Z,100509.64
2019-05-06T03:16:13.913Z,100510.05
2019-05-06T03:17:48.038Z,100514.07
2019-05-06T03:19:24.959Z,100512.33
2019-05-06T03:21:03.879Z,100511.78
2019-05-06T03:22:43.619Z,100516.62
2019-05-06T03:24:17.960Z,100514.11
2019-05-06T03:25:54.099Z,100516.02
2019-05-06T03:27:32.663Z,100518.13
2019-05-06T03:29:06.837Z,100518.67
2019-05-06T03:30:45.985Z,100513.41
2019-05-06T03:32:24.694Z,100518.25
2019-05-06T03:34:22.247Z,100519.02
2019-05-06T03:35:49.962Z,100515.65
2019-05-06T03:37:16.216Z,100513.96
2019-05-06T03:38:48.438Z,100515.55
2019-05-06T03:40:23.948Z,100521.25
2019-05-06T03:41:59.446Z,100515.46
2019-05-06T03:43:34.974Z,100517.88
2019-05-06T03:45:13.179Z,100519.25
2019-05-06T03:47:08.865Z,100519.25
2019-05-06T03:48:48.920Z,100519.25
2019-05-06T03:50:24.688Z,100522.43
2019-05-06T03:52:02.547Z,100522.43
2019-05-06T03:53:37.456Z,100527.91
2019-05-06T03:55:13.800Z,100520.84
2019-05-06T03:56:53.772Z,100527.14
2019-05-06T03:58:34.599Z,100522.52
2019-05-06T04:00:15.915Z,100520.39
2019-05-06T04:01:53.298Z,100528.09
2019-05-06T04:03:42.451Z,100531.87
2019-05-06T04:05:06.098Z,100533.89
2019-05-06T04:06:43.627Z,100526.18
2019-05-06T04:08:20.455Z,100535.03
2019-05-06T04:09:57.248Z,100534.08
2019-05-06T04:11:35.969Z,100534.99
2019-05-06T04:13:13.437Z,100534.27
2019-05-06T04:14:49.577Z,100532.98
2019-05-06T04:16:30.430Z,100533.27
2019-05-06T04:18:12.399Z,100539.16
2019-05-06T04:19:53.527Z,100534.31
2019-05-06T04:21:45.678Z,100533.23
2019-05-06T04:23:38.192Z,100536.38
2019-05-06T04:25:18.994Z,100543.00
2019-05-06T04:27:16.557Z,100541.44
2019-05-06T04:28:53.460Z,100545.92
2019-05-06T04:30:29.208Z,100548.98
2019-05-06T04:32:06.073Z,100546.66
2019-05-06T04:33:46.112Z,100556.42
2019-05-06T04:35:19.143Z,100560.08
2019-05-06T04:36:54.950Z,100559.11
2019-05-06T04:38:33.507Z,100557.93
2019-05-06T04:40:09.009Z,100559.70
2019-05-06T04:41:44.794Z,100562.56
2019-05-06T04:43:26.242Z,100566.86
2019-05-06T04:44:57.806Z,100567.77
2019-05-06T04:46:34.886Z,100565.95
2019-05-06T04:48:14.447Z,100565.84
2019-05-06T04:49:48.709Z,100565.39
2019-05-06T04:51:24.968Z,100567.67
2019-05-06T04:53:05.136Z,100566.39
2019-05-06T04:54:43.926Z,100560.48
2019-05-06T04:56:18.467Z,100567.70
2019-05-06T04:57:55.165Z,100574.64
2019-05-06T04:59:32.592Z,100570.62
2019-05-06T05:01:11.903Z,100574.30
2019-05-06T05:02:46.414Z,100573.34
2019-05-06T05:04:31.054Z,100571.51
2019-05-06T05:06:01.978Z,100573.28
2019-05-06T05:07:37.241Z,100566.80
2019-05-06T05:09:17.165Z,100572.36
2019-05-06T05:10:53.359Z,100572.77
2019-05-06T05:12:33.799Z,100575.91
2019-05-06T05:14:13.882Z,100574.61
2019-05-06T05:15:57.215Z,100572.78
2019-05-06T05:17:37.302Z,100574.23
2019-05-06T05:19:15.197Z,100577.06
2019-05-06T05:20:52.735Z,100579.89
2019-05-06T05:22:28.899Z,100576.17
2019-05-06T05:24:04.482Z,100576.88
2019-05-06T05:25:40.004Z,100574.30
2019-05-06T05:27:15.575Z,100577.72
2019-05-06T05:28:53.187Z,100582.54
2019-05-06T05:30:28.598Z,100584.59
2019-05-06T05:32:04.275Z,100593.84
2019-05-06T05:33:42.158Z,100582.16
2019-05-06T05:35:19.297Z,100586.13
2019-05-06T05:36:54.651Z,100579.11
2019-05-06T05:38:32.072Z,100575.38
2019-05-06T05:40:07.628Z,100576.08
2019-05-06T05:41:43.193Z,100579.22
2019-05-06T05:43:24.288Z,100580.74
2019-05-06T05:45:02.507Z,100582.47
2019-05-06T05:46:39.412Z,100586.23
2019-05-06T05:48:23.550Z,100592.93
2019-05-06T05:50:09.499Z,100590.33
2019-05-06T05:51:45.020Z,100593.23
2019-05-06T05:53:22.437Z,100593.66
2019-05-06T05:54:58.062Z,100595.80
2019-05-06T05:56:33.624Z,100601.83
2019-05-06T05:58:09.428Z,100600.70
2019-05-06T05:59:45.269Z,100596.79
2019-05-06T06:01:23.203Z,100596.76
2019-05-06T06:02:58.422Z,100602.23
2019-05-06T06:04:33.981Z,100604.33
2019-05-06T06:06:09.505Z,100607.58
2019-05-06T06:07:45.023Z,100603.11
2019-05-06T06:09:22.354Z,100609.05
2019-05-06T06:11:16.047Z,100608.42
2019-05-06T06:12:54.691Z,100604.70
2019-05-06T06:14:43.771Z,100601.32
2019-05-06T06:16:20.837Z,100610.07
2019-05-06T06:18:14.190Z,100596.63
2019-05-06T06:19:53.327Z,100606.19
2019-05-06T06:21:33.541Z,100605.09
2019-05-06T06:23:10.775Z,100599.61
2019-05-06T06:24:46.287Z,100604.84
2019-05-06T06:26:23.097Z,100605.39
2019-05-06T06:27:58.603Z,100603.72
2019-05-06T06:29:34.135Z,100603.67
2019-05-06T06:31:17.209Z,100606.36
2019-05-06T06:32:53.201Z,100600.69
2019-05-06T06:34:46.304Z,100604.68
2019-05-06T06:36:29.487Z,100605.02
2019-05-06T06:38:09.621Z,100601.48
2019-05-06T06:39:46.857Z,100601.75
2019-05-06T06:41:22.895Z,100608.92
2019-05-06T06:43:02.026Z,100607.75
2019-05-06T06:44:37.384Z,100601.84
2019-05-06T06:46:12.916Z,100600.84
2019-05-06T06:47:49.198Z,100596.21
2019-05-06T06:49:24.712Z,100606.00
2019-05-06T06:51:00.271Z,100603.00
2019-05-06T06:52:35.764Z,100607.78
2019-05-06T06:54:12.301Z,100603.05
2019-05-06T06:55:48.048Z,100600.80
2019-05-06T06:57:25.936Z,100595.21
2019-05-06T06:59:19.573Z,100598.77
2019-05-06T07:01:16.397Z,100589.87
2019-05-06T07:02:53.674Z,100600.06
2019-05-06T07:04:36.629Z,100596.09
2019-05-06T07:06:14.969Z,100595.97
2019-05-06T07:07:52.937Z,100597.25
2019-05-06T07:09:29.733Z,100597.17
2019-05-06T07:11:05.405Z,100591.52
2019-05-06T07:12:42.703Z,100593.59
2019-05-06T07:14:18.578Z,100598.73
2019-05-06T07:15:54.428Z,100596.11
2019-05-06T07:17:32.654Z,100595.67
2019-05-06T07:19:07.833Z,100594.73
2019-05-06T07:20:52.560Z,100595.95
2019-05-06T07:22:29.539Z,100593.28
2019-05-06T07:24:05.193Z,100594.24
2019-05-06T07:25:42.909Z,100599.39
2019-05-06T07:27:19.603Z,100595.34
2019-05-06T07:28:55.344Z,100593.77
2019-05-06T07:30:34.222Z,100587.11
2019-05-06T07:32:09.757Z,100597.23
2019-05-06T07:33:45.828Z,100591.95
2019-05-06T07:35:22.557Z,100594.89
2019-05-06T07:36:58.684Z,100593.72
2019-05-06T07:38:34.790Z,100595.16
2019-05-06T07:40:12.418Z,100600.75
2019-05-06T07:41:53.508Z,100595.62
2019-05-06T07:43:42.842Z,100595.58
2019-05-06T07:45:29.070Z,100592.50
2019-05-06T07:47:06.333Z,100595.25
2019-05-06T07:48:42.867Z,100596.84
2019-05-06T07:50:18.486Z,100596.45
2019-05-06T07:51:55.035Z,100589.86
2019-05-06T07:53:32.114Z,100591.92
2019-05-06T07:55:07.862Z,100594.21
2019-05-06T07:56:43.387Z,100594.86
2019-05-06T07:58:18.916Z,100593.31
2019-05-06T07:59:55.682Z,100588.70
2019-05-06T08:01:33.263Z,100599.22
2019-05-06T08:03:08.718Z,100594.97
2019-05-06T08:04:44.256Z,100590.88
2019-05-06T08:06:19.749Z,100590.34
2019-05-06T08:07:55.560Z,100586.72
2019-05-06T08:09:32.614Z,100589.94
2019-05-06T08:11:08.215Z,100589.99
2019-05-06T08:12:43.727Z,100596.58
2019-05-06T08:14:19.262Z,100586.41
2019-05-06T08:15:54.903Z,100594.02
2019-05-06T08:17:33.125Z,100590.66
2019-05-06T08:19:08.894Z,100587.17
2019-05-06T08:20:44.665Z,100582.02
2019-05-06T08:22:37.636Z,100587.02
2019-05-06T08:24:13.146Z,100586.47
2019-05-06T08:25:57.647Z,100583.81
2019-05-06T08:27:29.906Z,100582.16
2019-05-06T08:29:05.444Z,100587.34
2019-05-06T08:30:43.035Z,100583.38
2019-05-06T08:32:18.432Z,100588.59
2019-05-06T08:33:54.257Z,100582.03
2019-05-06T08:35:29.846Z,100581.16
2019-05-06T08:37:09.406Z,100583.20
2019-05-06T08:38:58.413Z,100586.11
2019-05-06T08:40:33.916Z,100582.86
2019-05-06T08:42:09.493Z,100589.37
2019-05-06T08:43:45.063Z,100586.94
2019-05-06T08:45:22.028Z,100587.82
2019-05-06T08:46:58.177Z,100586.94
2019-05-06T08:48:33.958Z,100593.36
2019-05-06T08:50:12.817Z,100585.58
2019-05-06T08:51:52.926Z,100590.73
2019-05-06T08:53:30.465Z,100589.16
2019-05-06T08:55:07.559Z,100592.26
2019-05-06T08:56:43.149Z,100586.89
2019-05-06T08:58:18.687Z,100591.05
2019-05-06T08:59:54.214Z,100584.03
2019-05-06T09:01:37.370Z,100582.85
2019-05-06T09:03:14.304Z,100586.63
2019-05-06T09:04:51.824Z,100583.19
2019-05-06T09:06:31.503Z,100587.52
2019-05-06T09:08:05.488Z,100584.83
2019-05-06T09:09:42.119Z,100583.50
2019-05-06T09:11:19.426Z,100582.20
2019-05-06T09:12:54.950Z,100586.72
2019-05-06T09:14:32.727Z,100581.52
2019-05-06T09:16:07.729Z,100581.88
2019-05-06T09:17:43.251Z,100581.09
2019-05-06T09:19:18.799Z,100581.70
2019-05-06T09:20:54.317Z,100575.02
2019-05-06T09:22:32.432Z,100583.11
2019-05-06T09:24:07.122Z,100578.95
2019-05-06T09:25:42.632Z,100582.02
2019-05-06T09:27:22.612Z,100575.39
2019-05-06T09:29:03.340Z,100573.50
2019-05-06T09:30:43.237Z,100575.21
2019-05-06T09:32:23.321Z,100582.38
2019-05-06T09:34:02.728Z,100577.88
2019-05-06T09:35:37.693Z,100577.31
2019-05-06T09:37:14.475Z,100576.71
2019-05-06T09:38:52.511Z,100570.48
2019-05-06T09:40:27.557Z,100561.46
2019-05-06T09:42:03.083Z,100568.78
2019-05-06T09:43:38.604Z,100571.23
2019-05-06T09:45:14.267Z,100566.61
2019-05-06T09:46:49.806Z,100568.25
2019-05-06T09:48:43.026Z,100565.28
2019-05-06T09:50:32.451Z,100563.50
2019-05-06T09:52:07.973Z,100567.93
2019-05-06T09:54:03.957Z,100565.30
2019-05-06T09:55:56.057Z,100568.78
2019-05-06T09:57:49.249Z,100568.38
2019-05-06T09:59:24.844Z,100569.64
2019-05-06T10:01:02.633Z,100566.14
2019-05-06T10:02:39.354Z,100569.88
2019-05-06T10:04:14.925Z,100566.59
2019-05-06T10:05:50.112Z,100559.17
2019-05-06T10:07:25.551Z,100563.41
2019-05-06T10:09:04.843Z,100565.98
2019-05-06T10:10:53.706Z,100561.58
2019-05-06T10:12:17.470Z,100569.44
2019-05-06T10:13:53.015Z,100568.08
2019-05-06T10:15:29.510Z,100568.09
2019-05-06T10:17:05.084Z,100560.86
2019-05-06T10:18:40.849Z,100562.53
2019-05-06T10:20:16.509Z,100559.17
2019-05-06T10:21:53.063Z,100566.40
2019-05-06T10:23:29.761Z,100567.48
2019-05-06T10:25:06.226Z,100558.57
2019-05-06T10:26:45.819Z,100561.87
2019-05-06T10:28:39.287Z,100559.61
2019-05-06T10:30:16.515Z,100562.89
2019-05-06T10:31:56.670Z,100562.32
2019-05-06T10:33:33.474Z,100557.81
2019-05-06T10:35:09.482Z,100559.12
2019-05-06T10:37:12.543Z,100562.66
2019-05-06T10:38:52.876Z,100558.10
2019-05-06T10:40:33.272Z,100566.08
2019-05-06T10:42:13.647Z,100563.50
2019-05-06T10:44:03.110Z,100560.87
2019-05-06T10:45:38.719Z,100559.27
2019-05-06T10:47:14.325Z,100554.38
2019-05-06T10:48:50.092Z,100561.53
2019-05-06T10:50:26.790Z,100557.80
2019-05-06T10:52:16.107Z,100557.69
2019-05-06T10:53:51.653Z,100555.00
2019-05-06T10:55:27.374Z,100549.59
2019-05-06T10:57:07.280Z,100543.09
2019-05-06T10:58:44.044Z,100547.52
2019-05-06T11:00:23.075Z,100539.62
2019-05-06T11:02:05.071Z,100544.31
2019-05-06T11:03:37.645Z,100546.25
2019-05-06T11:05:13.838Z,100554.19
2019-05-06T11:06:52.409Z,100548.98
2019-05-06T11:08:27.073Z,100543.23
2019-05-06T11:10:02.978Z,100546.13
2019-05-06T11:11:39.017Z,100554.28
2019-05-06T11:13:14.983Z,100544.07
2019-05-06T11:14:55.288Z,100540.25
2019-05-06T11:16:27.739Z,100543.16
2019-05-06T11:18:04.723Z,100540.22
2019-05-06T11:19:42.640Z,100544.51
2019-05-06T11:21:17.716Z,100542.34
2019-05-06T11:22:53.253Z,100547.07
2019-05-06T11:24:28.757Z,100543.96
2019-05-06T11:26:04.520Z,100543.36
2019-05-06T11:27:44.309Z,100544.70
2019-05-06T11:29:19.143Z,100546.03
2019-05-06T11:30:57.165Z,100542.37
2019-05-06T11:32:37.234Z,100536.55
2019-05-06T11:34:22.228Z,100548.28
2019-05-06T11:35:59.473Z,100547.48
2019-05-06T11:37:49.036Z,100544.09
2019-05-06T11:39:17.006Z,100541.83
2019-05-06T11:40:53.195Z,100548.47
2019-05-06T11:42:32.479Z,100545.65
2019-05-06T11:44:09.391Z,100541.68
2019-05-06T11:45:45.047Z,100538.52
2019-05-06T11:47:23.067Z,100542.34
2019-05-06T11:48:58.850Z,100540.00
2019-05-06T11:50:34.361Z,100537.38
2019-05-06T11:52:09.909Z,100543.95
2019-05-06T11:53:45.481Z,100544.69
2019-05-06T11:55:29.946Z,100543.16
2019-05-06T11:56:58.716Z,100537.73
2019-05-06T11:58:44.847Z,100548.23
2019-05-06T12:00:23.914Z,100545.83
2019-05-06T12:02:02.610Z,100544.55
2019-05-06T12:03:39.544Z,100546.09
2019-05-06T12:05:15.194Z,100547.67
2019-05-06T12:06:52.594Z,100544.98
2019-05-06T12:08:27.962Z,100541.83
2019-05-06T12:10:04.406Z,100541.79
2019-05-06T12:11:40.009Z,100536.60
2019-05-06T12:13:15.965Z,100540.75
2019-05-06T12:14:52.707Z,100536.62
2019-05-06T12:16:28.586Z,100530.66
2019-05-06T12:18:04.918Z,100533.51
2019-05-06T12:19:40.515Z,100533.89
2019-05-06T12:21:19.277Z,100534.12
2019-05-06T12:22:53.987Z,100536.93
2019-05-06T12:24:29.802Z,100538.75
2019-05-06T12:26:05.333Z,100533.50
2019-05-06T12:27:46.820Z,100531.52
2019-05-06T12:29:22.596Z,100534.89
2019-05-06T12:30:58.116Z,100532.10
2019-05-06T12:32:35.267Z,100541.01
2019-05-06T12:34:12.410Z,100537.31
2019-05-06T12:35:48.123Z,100528.81
2019-05-06T12:37:25.281Z,100535.38
2019-05-06T12:39:18.110Z,100531.84
2019-05-06T12:40:53.096Z,100537.52
2019-05-06T12:42:32.978Z,100535.16
2019-05-06T12:44:07.889Z,100534.42
2019-05-06T12:45:45.055Z,100534.52
2019-05-06T12:47:28.314Z,100534.55
2019-05-06T12:49:04.089Z,100535.16
2019-05-06T12:50:39.614Z,100531.85
2019-05-06T12:52:15.141Z,100532.17
2019-05-06T12:53:52.709Z,100537.25
2019-05-06T12:55:28.047Z,100537.00
2019-05-06T12:57:03.640Z,100538.73
2019-05-06T12:58:39.214Z,100530.44
2019-05-06T13:00:15.596Z,100531.05
2019-05-06T13:01:53.825Z,100533.58
2019-05-06T13:03:31.630Z,100528.87
2019-05-06T13:05:07.533Z,100532.83
2019-05-06T13:06:46.173Z,100533.10
2019-05-06T13:08:22.576Z,100528.94
2019-05-06T13:09:57.502Z,100528.69
2019-05-06T13:11:33.032Z,100534.80
2019-05-06T13:13:08.738Z,100536.17
2019-05-06T13:14:44.252Z,100532.25
2019-05-06T13:16:19.765Z,100528.83
2019-05-06T13:17:57.675Z,100532.62
2019-05-06T13:19:33.212Z,100533.91
2019-05-06T13:21:12.723Z,100533.56
2019-05-06T13:22:49.544Z,100526.82
2019-05-06T13:24:26.722Z,100529.55
2019-05-06T13:26:02.486Z,100527.55
2019-05-06T13:27:42.877Z,100533.05
2019-05-06T13:29:19.242Z,100539.38
2019-05-06T13:30:55.732Z,100542.39
2019-05-06T13:32:32.885Z,100531.25
2019-05-06T13:34:10.222Z,100536.84
2019-05-06T13:35:45.833Z,100529.88
2019-05-06T13:37:22.843Z,100532.64
2019-05-06T13:39:13.490Z,100536.08
2019-05-06T13:40:51.282Z,100529.48
2019-05-06T13:42:16.207Z,100528.70
2019-05-06T13:44:05.706Z,100527.19
2019-05-06T13:45:43.136Z,100521.58
2019-05-06T13:47:36.924Z,100528.00
2019-05-06T13:49:29.358Z,100521.95
2019-05-06T13:51:06.522Z,100520.88
2019-05-06T13:52:44.188Z,100525.45
2019-05-06T13:54:22.160Z,100524.12
2019-05-06T13:55:56.956Z,100528.36
2019-05-06T13:57:32.498Z,100526.99
2019-05-06T13:59:08.013Z,100524.77
2019-05-06T14:00:43.905Z,100525.70
2019-05-06T14:02:21.085Z,100524.09
2019-05-06T14:03:56.622Z,100516.88
2019-05-06T14:05:32.997Z,100518.87
2019-05-06T14:07:08.689Z,100518.56
2019-05-06T14:08:44.508Z,100515.20
2019-05-06T14:10:22.058Z,100521.35
2019-05-06T14:11:57.262Z,100512.20
2019-05-06T14:13:32.907Z,100516.95
2019-05-06T14:15:08.770Z,100518.34
2019-05-06T14:16:44.292Z,100512.53
2019-05-06T14:18:19.803Z,100517.52
2019-05-06T14:19:55.341Z,100515.55
2019-05-06T14:21:32.433Z,100515.02
2019-05-06T14:23:10.004Z,100516.65
2019-05-06T14:24:47.183Z,100513.92
2019-05-06T14:26:34.066Z,100504.46
2019-05-06T14:28:12.372Z,100516.48
2019-05-06T14:29:49.427Z,100514.86
2019-05-06T14:31:26.487Z,100512.42
2019-05-06T14:33:03.317Z,100514.95
2019-05-06T14:34:39.041Z,100515.31
2019-05-06T14:36:14.567Z,100514.54
2019-05-06T14:37:50.088Z,100518.73
2019-05-06T14:39:47.355Z,100516.26
2019-05-06T14:41:07.825Z,100518.78
2019-05-06T14:42:42.354Z,100518.25
2019-05-06T14:44:18.007Z,100518.84
2019-05-06T14:45:53.524Z,100515.80
2019-05-06T14:47:32.725Z,100519.97
2019-05-06T14:49:07.907Z,100519.68
2019-05-06T14:50:48.448Z,100521.63
2019-05-06T14:52:22.617Z,100523.30
2019-05-06T14:53:58.706Z,100524.93
2019-05-06T14:55:35.834Z,100522.15
2019-05-06T14:57:14.607Z,100523.02
2019-05-06T14:59:06.082Z,100526.09
2019-05-06T15:00:42.545Z,100523.05
2019-05-06T15:02:25.351Z,100523.11
2019-05-06T15:03:57.625Z,100525.91
2019-05-06T15:05:36.086Z,100524.53
2019-05-06T15:07:17.075Z,100522.58
2019-05-06T15:08:57.899Z,100515.92
2019-05-06T15:10:53.723Z,100518.20
2019-05-06T15:12:33.113Z,100516.00
2019-05-06T15:14:08.250Z,100514.92
2019-05-06T15:15:43.788Z,100517.17
2019-05-06T15:17:19.312Z,100515.50
2019-05-06T15:18:54.835Z,100516.89
2019-05-06T15:20:30.364Z,100514.95
2019-05-06T15:22:06.122Z,100516.08
2019-05-06T15:23:42.441Z,100511.97
2019-05-06T15:25:18.156Z,100516.42
2019-05-06T15:26:54.929Z,100525.08
2019-05-06T15:28:30.461Z,100517.60
2019-05-06T15:30:12.285Z,100520.66
2019-05-06T15:31:48.719Z,100520.92
2019-05-06T15:33:25.884Z,100523.48
2019-05-06T15:35:16.147Z,100524.02
2019-05-06T15:36:57.574Z,100515.98
2019-05-06T15:38:33.193Z,100515.43
2019-05-06T15:40:09.623Z,100513.79
2019-05-06T15:41:45.170Z,100516.58
2019-05-06T15:43:22.041Z,100514.91
2019-05-06T15:44:57.589Z,100515.48
2019-05-06T15:46:34.126Z,100516.59
2019-05-06T15:48:09.679Z,100516.30
2019-05-06T15:49:45.382Z,100514.34
2019-05-06T15:51:22.554Z,100519.66
2019-05-06T15:52:58.073Z,100523.83
2019-05-06T15:54:33.597Z,100515.20
2019-05-06T15:56:09.219Z,100519.09
2019-05-06T15:57:44.872Z,100517.98
2019-05-06T15:59:22.773Z,100519.38
2019-05-06T16:00:57.598Z,100519.09
2019-05-06T16:02:34.299Z,100519.09
2019-05-06T16:04:12.221Z,100514.93
2019-05-06T16:05:47.812Z,100514.93
2019-05-06T16:07:26.123Z,100514.65
2019-05-06T16:09:03.636Z,100520.48
2019-05-06T16:10:52.013Z,100518.83
2019-05-06T16:12:17.868Z,100516.62
2019-05-06T16:13:53.529Z,100521.61
2019-05-06T16:15:29.092Z,100510.51
2019-05-06T16:17:04.817Z,100513.57
2019-05-06T16:18:42.291Z,100519.13
2019-05-06T16:20:18.047Z,100518.32
2019-05-06T16:21:53.632Z,100513.30
2019-05-06T16:23:33.861Z,100514.98
2019-05-06T16:25:15.033Z,100517.76
2019-05-06T16:26:52.753Z,100522.78
2019-05-06T16:28:28.078Z,100517.48
2019-05-06T16:30:04.942Z,100518.34
2019-05-06T16:31:42.247Z,100516.11
2019-05-06T16:33:19.086Z,100522.52
2019-05-06T16:34:54.704Z,100518.35
2019-05-06T16:36:32.429Z,100520.31
2019-05-06T16:38:07.556Z,100511.13
2019-05-06T16:39:43.081Z,100515.02
2019-05-06T16:41:19.577Z,100514.77
2019-05-06T16:42:55.138Z,100517.26
2019-05-06T16:44:31.167Z,100520.32
2019-05-06T16:46:06.770Z,100516.69
2019-05-06T16:47:44.699Z,100515.56
2019-05-06T16:49:19.749Z,100517.52
2019-05-06T16:50:55.274Z,100518.05
2019-05-06T16:52:33.196Z,100515.84
2019-05-06T16:54:08.053Z,100510.28
2019-05-06T16:56:02.263Z,100513.06
2019-05-06T16:57:37.903Z,100510.84
2019-05-06T16:59:13.404Z,100513.90
2019-05-06T17:00:48.932Z,100513.89
2019-05-06T17:02:26.699Z,100517.20
2019-05-06T17:04:14.645Z,100514.98
2019-05-06T17:06:07.724Z,100515.55
2019-05-06T17:07:45.131Z,100509.15
2019-05-06T17:09:24.438Z,100516.92
2019-05-06T17:10:57.714Z,100511.91
2019-05-06T17:12:35.391Z,100519.41
2019-05-06T17:14:12.265Z,100513.29
2019-05-06T17:15:49.918Z,100510.23
2019-05-06T17:17:38.900Z,100507.20
2019-05-06T17:19:03.402Z,100515.52
2019-05-06T17:20:39.001Z,100506.34
2019-05-06T17:22:14.521Z,100507.73
2019-05-06T17:23:52.083Z,100503.58
2019-05-06T17:25:27.336Z,100509.69
2019-05-06T17:27:02.911Z,100511.61
2019-05-06T17:28:43.363Z,100507.47
2019-05-06T17:30:33.269Z,100505.80
2019-05-06T17:32:13.386Z,100507.71
2019-05-06T17:33:56.202Z,100513.00
2019-05-06T17:35:32.793Z,100507.44
2019-05-06T17:37:12.361Z,100512.97
2019-05-06T17:38:52.559Z,100507.41
2019-05-06T17:40:28.103Z,100514.61
2019-05-06T17:42:03.974Z,100513.20
2019-05-06T17:43:41.068Z,100505.41
2019-05-06T17:45:36.684Z,100511.22
2019-05-06T17:47:22.934Z,100513.70
2019-05-06T17:49:02.240Z,100513.95
2019-05-06T17:50:37.354Z,100511.40
2019-05-06T17:52:14.522Z,100516.93
2019-05-06T17:53:54.161Z,100518.30
2019-05-06T17:55:29.683Z,100520.77
2019-05-06T17:57:06.428Z,100520.20
2019-05-06T17:58:42.402Z,100518.52
2019-05-06T18:00:19.037Z,100517.69
2019-05-06T18:01:56.267Z,100517.38
2019-05-06T18:03:32.592Z,100515.41
2019-05-06T18:05:08.433Z,100513.18
2019-05-06T18:06:44.013Z,100512.31
2019-05-06T18:08:19.777Z,100515.63
2019-05-06T18:09:55.318Z,100516.45
2019-05-06T18:11:33.259Z,100517.23
2019-05-06T18:13:08.024Z,100521.37
2019-05-06T18:14:43.758Z,100529.37
2019-05-06T18:16:19.496Z,100527.97
2019-05-06T18:17:55.411Z,100529.33
2019-05-06T18:19:33.215Z,100529.29
2019-05-06T18:21:08.205Z,100533.98
2019-05-06T18:22:43.748Z,100529.52
2019-05-06T18:24:19.276Z,100534.74
2019-05-06T18:25:54.798Z,100532.52
2019-05-06T18:27:32.562Z,100540.22
2019-05-06T18:29:07.557Z,100544.08
2019-05-06T18:30:44.703Z,100543.77
2019-05-06T18:32:20.483Z,100540.39
2019-05-06T18:33:56.063Z,100542.02
2019-05-06T18:35:32.126Z,100538.12
2019-05-06T18:37:07.273Z,100546.92